Time,TemperatureF,DewpointF,PressureIn,WindDirection,WindDirectionDegrees,WindSpeedMPH,WindSpeedGustMPH,Humidity,HourlyPrecipIn,Conditions,Clouds,dailyrainin,SoftwareType,DateUTC
2014-01-18 00:00:00,22.2,17.3,29.93,SW,218,3.0,3.0,81,0.00,,,0.00,Wunderground v.1.15,2014-01-18 05:00:00,
2014-01-18 00:05:00,22.2,17.3,29.93,West,281,3.0,3.0,81,0.00,,,0.00,Wunderground v.1.15,2014-01-18 05:05:00,
2014-01-18 00:10:00,22.1,17.2,29.93,SW,235,3.0,3.0,81,0.00,,,0.00,Wunderground v.1.15,2014-01-18 05:10:00,
2014-01-18 00:15:00,21.9,17.2,29.93,SW,217,3.0,3.0,82,0.00,,,0.00,Wunderground v.1.15,2014-01-18 05:15:00,
2014-01-18 00:20:00,21.6,17.2,29.93,SW,236,3.0,3.0,83,0.00,,,0.00,Wunderground v.1.15,2014-01-18 05:20:00,
2014-01-18 00:25:00,21.4,17.3,29.93,SW,214,3.0,3.0,84,0.00,,,0.00,Wunderground v.1.15,2014-01-18 05:25:00,
2014-01-18 00:30:00,21.3,17.5,29.93,SW,232,2.0,2.0,85,0.00,,,0.00,Wunderground v.1.15,2014-01-18 05:30:00,
2014-01-18 00:35:00,21.1,17.3,29.93,WSW,247,2.0,2.0,85,0.00,,,0.00,Wunderground v.1.15,2014-01-18 05:35:00,
2014-01-18 00:40:00,21.0,17.2,29.93,WSW,246,3.0,6.0,85,0.00,,,0.00,Wunderground v.1.15,2014-01-18 05:40:00,
2014-01-18 00:50:00,20.8,16.2,29.93,South,190,3.0,3.0,82,0.00,,,0.00,Wunderground v.1.15,2014-01-18 05:50:00,
2014-01-18 00:55:00,20.7,15.8,29.92,WSW,243,3.0,4.0,81,0.00,,,0.00,Wunderground v.1.15,2014-01-18 05:55:00,
2014-01-18 01:00:00,20.6,15.1,29.92,SW,219,3.0,4.0,79,0.00,,,0.00,Wunderground v.1.15,2014-01-18 06:00:00,
2014-01-18 01:05:00,20.6,14.8,29.91,West,270,2.0,4.0,78,0.00,,,0.00,Wunderground v.1.15,2014-01-18 06:05:00,
2014-01-18 01:10:00,20.5,14.1,29.92,WSW,243,3.0,3.0,76,0.00,,,0.00,Wunderground v.1.15,2014-01-18 06:10:00,
2014-01-18 01:15:00,20.4,13.4,29.91,SSE,159,3.0,3.0,74,0.00,,,0.00,Wunderground v.1.15,2014-01-18 06:15:00,
2014-01-18 01:20:00,20.3,12.7,29.91,SW,226,4.0,4.0,72,0.00,,,0.00,Wunderground v.1.15,2014-01-18 06:20:00,
2014-01-18 01:25:00,20.2,12.3,29.91,SW,221,3.0,4.0,71,0.00,,,0.00,Wunderground v.1.15,2014-01-18 06:25:00,
2014-01-18 01:35:00,20.1,12.8,29.92,South,184,2.0,3.0,73,0.00,,,0.00,Wunderground v.1.15,2014-01-18 06:35:00,
2014-01-18 01:45:00,20.0,12.1,29.92,SW,236,3.0,4.0,71,0.00,,,0.00,Wunderground v.1.15,2014-01-18 06:45:00,
2014-01-18 01:50:00,19.9,11.7,29.92,SW,229,3.0,3.0,70,0.00,,,0.00,Wunderground v.1.15,2014-01-18 06:50:00,
2014-01-18 01:55:00,19.8,10.9,29.92,WSW,239,3.0,5.0,68,0.00,,,0.00,Wunderground v.1.15,2014-01-18 06:55:00,
2014-01-18 02:00:00,19.7,10.2,29.92,WSW,243,4.0,7.0,66,0.00,,,0.00,Wunderground v.1.15,2014-01-18 07:00:00,
2014-01-18 02:05:00,19.4,9.5,29.92,WSW,238,5.0,7.0,65,0.00,,,0.00,Wunderground v.1.15,2014-01-18 07:05:00,
2014-01-18 02:10:00,19.2,9.0,29.92,South,188,4.0,4.0,64,0.00,,,0.00,Wunderground v.1.15,2014-01-18 07:10:00,
2014-01-18 02:15:00,19.0,9.2,29.92,WSW,243,4.0,4.0,65,0.00,,,0.00,Wunderground v.1.15,2014-01-18 07:15:00,
2014-01-18 02:20:00,18.9,10.1,29.92,SW,222,3.0,3.0,68,0.00,,,0.00,Wunderground v.1.15,2014-01-18 07:20:00,
2014-01-18 02:25:00,18.6,10.8,29.92,SSW,207,3.0,3.0,71,0.00,,,0.00,Wunderground v.1.15,2014-01-18 07:25:00,
2014-01-18 02:35:00,18.2,11.3,29.92,WSW,245,3.0,4.0,74,0.00,,,0.00,Wunderground v.1.15,2014-01-18 07:35:00,
2014-01-18 02:40:00,18.1,11.2,29.92,SW,227,3.0,4.0,74,0.00,,,0.00,Wunderground v.1.15,2014-01-18 07:40:00,
2014-01-18 02:45:00,18.0,11.7,29.92,WSW,239,2.0,4.0,76,0.00,,,0.00,Wunderground v.1.15,2014-01-18 07:45:00,
2014-01-18 02:50:00,17.8,11.8,29.92,SW,236,2.0,4.0,77,0.00,,,0.00,Wunderground v.1.15,2014-01-18 07:50:00,
2014-01-18 03:00:00,17.5,12.1,29.92,SW,229,3.0,5.0,79,0.00,,,0.00,Wunderground v.1.15,2014-01-18 08:00:00,
2014-01-18 03:10:00,17.3,12.2,29.93,SW,236,4.0,4.0,80,0.00,,,0.00,Wunderground v.1.15,2014-01-18 08:10:00,
2014-01-18 03:15:00,17.3,12.7,29.93,SW,233,4.0,4.0,82,0.00,,,0.00,Wunderground v.1.15,2014-01-18 08:15:00,
2014-01-18 03:20:00,17.2,13.2,29.94,WSW,240,4.0,6.0,84,0.00,,,0.00,Wunderground v.1.15,2014-01-18 08:20:00,
2014-01-18 03:25:00,17.1,13.1,29.93,West,259,3.0,6.0,84,0.00,,,0.00,Wunderground v.1.15,2014-01-18 08:25:00,
2014-01-18 03:35:00,16.9,12.9,29.93,SW,227,3.0,4.0,84,0.00,,,0.00,Wunderground v.1.15,2014-01-18 08:35:00,
2014-01-18 03:40:00,16.8,12.8,29.93,SW,235,4.0,5.0,84,0.00,,,0.00,Wunderground v.1.15,2014-01-18 08:40:00,
2014-01-18 03:45:00,16.7,12.4,29.93,SW,236,4.0,6.0,83,0.00,,,0.00,Wunderground v.1.15,2014-01-18 08:45:00,
2014-01-18 03:50:00,16.6,12.3,29.93,WSW,240,4.0,4.0,83,0.00,,,0.00,Wunderground v.1.15,2014-01-18 08:50:00,
2014-01-18 03:55:00,16.3,12.6,29.94,SW,236,4.0,6.0,85,0.00,,,0.00,Wunderground v.1.15,2014-01-18 08:55:00,
2014-01-18 04:00:00,16.2,12.7,29.94,West,260,4.0,5.0,86,0.00,,,0.00,Wunderground v.1.15,2014-01-18 09:00:00,
2014-01-18 04:05:00,16.1,12.7,29.94,SW,236,4.0,5.0,86,0.00,,,0.00,Wunderground v.1.15,2014-01-18 09:05:00,
2014-01-18 04:10:00,16.0,12.6,29.93,WSW,252,3.0,3.0,86,0.00,,,0.00,Wunderground v.1.15,2014-01-18 09:10:00,
2014-01-18 04:15:00,15.9,12.5,29.93,WSW,256,3.0,3.0,86,0.00,,,0.00,Wunderground v.1.15,2014-01-18 09:15:00,
2014-01-18 04:20:00,15.8,12.4,29.93,WSW,243,3.0,4.0,86,0.00,,,0.00,Wunderground v.1.15,2014-01-18 09:20:00,
2014-01-18 04:25:00,15.6,12.2,29.93,WSW,254,4.0,4.0,86,0.00,,,0.00,Wunderground v.1.15,2014-01-18 09:25:00,
2014-01-18 04:30:00,15.6,12.2,29.93,WSW,241,3.0,4.0,86,0.00,,,0.00,Wunderground v.1.15,2014-01-18 09:30:00,
2014-01-18 04:35:00,15.5,12.3,29.93,West,263,3.0,4.0,87,0.00,,,0.00,Wunderground v.1.15,2014-01-18 09:35:00,
2014-01-18 04:40:00,15.5,12.1,29.94,WSW,245,3.0,3.0,86,0.00,,,0.00,Wunderground v.1.15,2014-01-18 09:40:00,
2014-01-18 04:45:00,15.5,12.1,29.94,SW,228,3.0,3.0,86,0.00,,,0.00,Wunderground v.1.15,2014-01-18 09:45:00,
2014-01-18 04:50:00,15.4,12.2,29.94,SW,225,3.0,4.0,87,0.00,,,0.00,Wunderground v.1.15,2014-01-18 09:50:00,
2014-01-18 04:55:00,15.2,12.0,29.94,West,259,3.0,4.0,87,0.00,,,0.00,Wunderground v.1.15,2014-01-18 09:55:00,
2014-01-18 05:05:00,15.2,12.3,29.95,SW,232,3.0,3.0,88,0.00,,,0.00,Wunderground v.1.15,2014-01-18 10:05:00,
2014-01-18 05:10:00,15.1,12.4,29.95,WSW,247,3.0,5.0,89,0.00,,,0.00,Wunderground v.1.15,2014-01-18 10:10:00,
2014-01-18 05:15:00,15.1,12.4,29.95,West,264,3.0,5.0,89,0.00,,,0.00,Wunderground v.1.15,2014-01-18 10:15:00,
2014-01-18 05:20:00,15.1,12.4,29.95,West,259,4.0,4.0,89,0.00,,,0.00,Wunderground v.1.15,2014-01-18 10:20:00,
2014-01-18 05:25:00,15.1,12.4,29.95,SW,225,3.0,4.0,89,0.00,,,0.00,Wunderground v.1.15,2014-01-18 10:25:00,
2014-01-18 05:30:00,15.1,12.4,29.96,WSW,250,3.0,3.0,89,0.00,,,0.00,Wunderground v.1.15,2014-01-18 10:30:00,
2014-01-18 05:35:00,15.0,12.3,29.96,WSW,238,3.0,5.0,89,0.00,,,0.00,Wunderground v.1.15,2014-01-18 10:35:00,
2014-01-18 05:40:00,15.0,12.6,29.96,SW,236,3.0,4.0,90,0.00,,,0.00,Wunderground v.1.15,2014-01-18 10:40:00,
2014-01-18 05:45:00,15.0,12.6,29.97,WSW,242,3.0,4.0,90,0.00,,,0.00,Wunderground v.1.15,2014-01-18 10:45:00,
2014-01-18 05:55:00,15.0,12.6,29.96,SW,232,3.0,5.0,90,0.00,,,0.00,Wunderground v.1.15,2014-01-18 10:55:00,
2014-01-18 06:00:00,14.9,12.5,29.96,WSW,240,3.0,3.0,90,0.00,,,0.00,Wunderground v.1.15,2014-01-18 11:00:00,
2014-01-18 06:05:00,14.9,12.5,29.97,SW,219,3.0,3.0,90,0.00,,,0.00,Wunderground v.1.15,2014-01-18 11:05:00,
2014-01-18 06:10:00,14.8,12.4,29.96,SSW,203,2.0,2.0,90,0.00,,,0.00,Wunderground v.1.15,2014-01-18 11:10:00,
2014-01-18 06:15:00,14.8,12.4,29.96,SSW,205,2.0,2.0,90,0.00,,,0.00,Wunderground v.1.15,2014-01-18 11:15:00,
2014-01-18 06:20:00,14.7,12.3,29.96,SW,232,1.0,3.0,90,0.00,,,0.00,Wunderground v.1.15,2014-01-18 11:20:00,
2014-01-18 06:25:00,14.6,12.2,29.96,West,272,1.0,3.0,90,0.00,,,0.00,Wunderground v.1.15,2014-01-18 11:25:00,
2014-01-18 06:30:00,14.5,11.9,29.96,WSW,245,1.0,4.0,89,0.00,,,0.00,Wunderground v.1.15,2014-01-18 11:30:00,
2014-01-18 06:35:00,14.4,11.8,29.95,West,259,2.0,4.0,89,0.00,,,0.00,Wunderground v.1.15,2014-01-18 11:35:00,
2014-01-18 06:40:00,14.4,11.8,29.95,WSW,258,2.0,3.0,89,0.00,,,0.00,Wunderground v.1.15,2014-01-18 11:40:00,
2014-01-18 06:45:00,14.4,11.8,29.95,SW,236,2.0,3.0,89,0.00,,,0.00,Wunderground v.1.15,2014-01-18 11:45:00,
2014-01-18 06:50:00,14.3,11.7,29.95,SW,236,3.0,4.0,89,0.00,,,0.00,Wunderground v.1.15,2014-01-18 11:50:00,
2014-01-18 06:55:00,14.3,11.7,29.96,SW,236,3.0,4.0,89,0.00,,,0.00,Wunderground v.1.15,2014-01-18 11:55:00,
2014-01-18 07:00:00,14.3,11.7,29.96,WSW,243,2.0,3.0,89,0.00,,,0.00,Wunderground v.1.15,2014-01-18 12:00:00,
2014-01-18 07:05:00,14.3,11.7,29.96,WSW,239,3.0,3.0,89,0.00,,,0.00,Wunderground v.1.15,2014-01-18 12:05:00,
2014-01-18 07:15:00,14.3,11.7,29.97,SW,236,3.0,4.0,89,0.00,,,0.00,Wunderground v.1.15,2014-01-18 12:15:00,
2014-01-18 07:20:00,14.2,11.3,29.97,WSW,246,3.0,4.0,88,0.00,,,0.00,Wunderground v.1.15,2014-01-18 12:20:00,
2014-01-18 07:25:00,14.1,11.2,29.98,SW,231,4.0,4.0,88,0.00,,,0.00,Wunderground v.1.15,2014-01-18 12:25:00,
2014-01-18 07:30:00,14.2,11.0,29.98,SW,233,3.0,4.0,87,0.00,,,0.00,Wunderground v.1.15,2014-01-18 12:30:00,
2014-01-18 07:40:00,14.2,11.0,29.98,WSW,246,3.0,3.0,87,0.00,,,0.00,Wunderground v.1.15,2014-01-18 12:40:00,
2014-01-18 07:45:00,14.2,10.8,29.98,SW,219,3.0,3.0,86,0.00,,,0.00,Wunderground v.1.15,2014-01-18 12:45:00,
2014-01-18 07:50:00,14.2,10.8,29.98,SW,236,3.0,3.0,86,0.00,,,0.00,Wunderground v.1.15,2014-01-18 12:50:00,
2014-01-18 07:55:00,14.2,10.5,29.98,West,276,3.0,3.0,85,0.00,,,0.00,Wunderground v.1.15,2014-01-18 12:55:00,
2014-01-18 08:00:00,14.3,10.4,29.99,WSW,245,3.0,4.0,84,0.00,,,0.00,Wunderground v.1.15,2014-01-18 13:00:00,
2014-01-18 08:10:00,14.4,10.2,30.00,WSW,240,3.0,3.0,83,0.00,,,0.00,Wunderground v.1.15,2014-01-18 13:10:00,
2014-01-18 08:15:00,14.5,10.3,30.00,WSW,246,3.0,5.0,83,0.00,,,0.00,Wunderground v.1.15,2014-01-18 13:15:00,
2014-01-18 08:20:00,14.9,10.4,30.01,WSW,239,3.0,3.0,82,0.00,,,0.00,Wunderground v.1.15,2014-01-18 13:20:00,
2014-01-18 08:25:00,15.4,10.9,30.01,West,280,3.0,3.0,82,0.00,,,0.00,Wunderground v.1.15,2014-01-18 13:25:00,
2014-01-18 08:30:00,15.9,11.1,30.01,SW,233,3.0,3.0,81,0.00,,,0.00,Wunderground v.1.15,2014-01-18 13:30:00,
2014-01-18 08:35:00,16.2,11.4,30.01,WSW,250,2.0,3.0,81,0.00,,,0.00,Wunderground v.1.15,2014-01-18 13:35:00,
2014-01-18 08:40:00,16.7,11.9,30.02,WSW,248,2.0,2.0,81,0.00,,,0.00,Wunderground v.1.15,2014-01-18 13:40:00,
2014-01-18 08:45:00,16.9,11.8,30.03,WSW,243,3.0,3.0,80,0.00,,,0.00,Wunderground v.1.15,2014-01-18 13:45:00,
2014-01-18 08:50:00,17.3,12.2,30.03,West,263,3.0,3.0,80,0.00,,,0.00,Wunderground v.1.15,2014-01-18 13:50:00,
2014-01-18 08:55:00,17.5,11.8,30.03,SW,221,3.0,3.0,78,0.00,,,0.00,Wunderground v.1.15,2014-01-18 13:55:00,
2014-01-18 09:00:00,17.7,12.0,30.04,SW,219,3.0,3.0,78,0.00,,,0.00,Wunderground v.1.15,2014-01-18 14:00:00,
2014-01-18 09:05:00,18.0,12.3,30.03,WSW,256,2.0,3.0,78,0.00,,,0.00,Wunderground v.1.15,2014-01-18 14:05:00,
2014-01-18 09:10:00,18.3,12.0,30.04,West,280,3.0,3.0,76,0.00,,,0.00,Wunderground v.1.15,2014-01-18 14:10:00,
2014-01-18 09:15:00,18.4,12.1,30.05,WNW,282,3.0,3.0,76,0.00,,,0.00,Wunderground v.1.15,2014-01-18 14:15:00,
2014-01-18 09:25:00,19.1,12.8,30.05,WSW,250,3.0,4.0,76,0.00,,,0.00,Wunderground v.1.15,2014-01-18 14:25:00,
2014-01-18 09:35:00,19.8,13.2,30.05,SW,221,2.0,3.0,75,0.00,,,0.00,Wunderground v.1.15,2014-01-18 14:35:00,
2014-01-18 09:40:00,20.0,13.0,30.05,West,271,3.0,3.0,74,0.00,,,0.00,Wunderground v.1.15,2014-01-18 14:40:00,
2014-01-18 09:45:00,20.2,12.9,30.06,WSW,238,3.0,4.0,73,0.00,,,0.00,Wunderground v.1.15,2014-01-18 14:45:00,
2014-01-18 09:50:00,20.3,13.0,30.07,SSW,211,3.0,3.0,73,0.00,,,0.00,Wunderground v.1.15,2014-01-18 14:50:00,
2014-01-18 09:55:00,20.6,13.3,30.07,SW,219,3.0,4.0,73,0.00,,,0.00,Wunderground v.1.15,2014-01-18 14:55:00,
2014-01-18 10:00:00,20.9,13.3,30.07,WSW,246,3.0,4.0,72,0.00,,,0.00,Wunderground v.1.15,2014-01-18 15:00:00,
2014-01-18 10:05:00,21.2,13.6,30.08,SW,232,3.0,5.0,72,0.00,,,0.00,Wunderground v.1.15,2014-01-18 15:05:00,
2014-01-18 10:10:00,21.4,13.8,30.08,SSW,212,3.0,3.0,72,0.00,,,0.00,Wunderground v.1.15,2014-01-18 15:10:00,
2014-01-18 10:15:00,21.5,13.5,30.08,SW,231,3.0,3.0,71,0.00,,,0.00,Wunderground v.1.15,2014-01-18 15:15:00,
2014-01-18 10:20:00,21.7,13.7,30.08,WSW,242,3.0,3.0,71,0.00,,,0.00,Wunderground v.1.15,2014-01-18 15:20:00,
2014-01-18 10:25:00,21.7,14.1,30.08,WSW,250,3.0,4.0,72,0.00,,,0.00,Wunderground v.1.15,2014-01-18 15:25:00,
2014-01-18 10:30:00,21.9,13.9,30.09,SW,224,3.0,3.0,71,0.00,,,0.00,Wunderground v.1.15,2014-01-18 15:30:00,
2014-01-18 10:35:00,22.2,14.2,30.09,SW,222,4.0,4.0,71,0.00,,,0.00,Wunderground v.1.15,2014-01-18 15:35:00,
2014-01-18 10:40:00,22.1,13.5,30.09,WSW,248,4.0,5.0,69,0.00,,,0.00,Wunderground v.1.15,2014-01-18 15:40:00,
2014-01-18 10:45:00,22.0,13.4,30.09,SW,222,3.0,5.0,69,0.00,,,0.00,Wunderground v.1.15,2014-01-18 15:45:00,
2014-01-18 10:50:00,22.2,14.2,30.09,SW,236,3.0,5.0,71,0.00,,,0.00,Wunderground v.1.15,2014-01-18 15:50:00,
2014-01-18 10:55:00,22.3,14.3,30.09,WSW,242,4.0,5.0,71,0.00,,,0.00,Wunderground v.1.15,2014-01-18 15:55:00,
2014-01-18 11:00:00,22.2,13.9,30.09,SW,236,4.0,4.0,70,0.00,,,0.00,Wunderground v.1.15,2014-01-18 16:00:00,
2014-01-18 11:05:00,22.5,13.9,30.09,SW,236,4.0,5.0,69,0.00,,,0.00,Wunderground v.1.15,2014-01-18 16:05:00,
2014-01-18 11:10:00,23.0,14.3,30.09,SW,233,3.0,3.0,69,0.00,,,0.00,Wunderground v.1.15,2014-01-18 16:10:00,
2014-01-18 11:15:00,23.4,14.0,30.10,SSW,195,3.0,4.0,67,0.00,,,0.00,Wunderground v.1.15,2014-01-18 16:15:00,
2014-01-18 11:20:00,24.4,16.0,30.10,SW,228,3.0,3.0,70,0.00,,,0.00,Wunderground v.1.15,2014-01-18 16:20:00,
2014-01-18 11:25:00,24.7,14.6,30.10,SSW,200,2.0,3.0,65,0.00,,,0.00,Wunderground v.1.15,2014-01-18 16:25:00,
2014-01-18 11:30:00,24.8,14.7,30.09,South,176,2.0,2.0,65,0.00,,,0.00,Wunderground v.1.15,2014-01-18 16:30:00,
2014-01-18 11:40:00,24.2,14.1,30.09,WSW,257,3.0,3.0,65,0.00,,,0.00,Wunderground v.1.15,2014-01-18 16:40:00,
2014-01-18 11:45:00,24.5,14.8,30.09,WSW,252,4.0,4.0,66,0.00,,,0.00,Wunderground v.1.15,2014-01-18 16:45:00,
2014-01-18 11:50:00,25.1,15.0,30.09,West,267,3.0,3.0,65,0.00,,,0.00,Wunderground v.1.15,2014-01-18 16:50:00,
2014-01-18 12:00:00,25.7,15.6,30.08,WSW,250,2.0,2.0,65,0.00,,,0.00,Wunderground v.1.15,2014-01-18 17:00:00,
2014-01-18 12:05:00,25.9,15.0,30.07,West,272,3.0,4.0,63,0.00,,,0.00,Wunderground v.1.15,2014-01-18 17:05:00,
2014-01-18 12:10:00,26.2,15.7,30.07,WSW,243,3.0,4.0,64,0.00,,,0.00,Wunderground v.1.15,2014-01-18 17:10:00,
2014-01-18 12:15:00,25.9,15.0,30.07,SW,226,3.0,5.0,63,0.00,,,0.00,Wunderground v.1.15,2014-01-18 17:15:00,
2014-01-18 12:20:00,25.3,14.8,30.07,SSW,210,4.0,4.0,64,0.00,,,0.00,Wunderground v.1.15,2014-01-18 17:20:00,
2014-01-18 12:25:00,26.2,16.0,30.06,SE,146,3.0,4.0,65,0.00,,,0.00,Wunderground v.1.15,2014-01-18 17:25:00,
2014-01-18 12:30:00,27.3,16.0,30.06,East,83,2.0,2.0,62,0.00,,,0.00,Wunderground v.1.15,2014-01-18 17:30:00,
2014-01-18 12:40:00,27.1,15.4,30.06,SE,129,2.0,2.0,61,0.00,,,0.00,Wunderground v.1.15,2014-01-18 17:40:00,
2014-01-18 12:45:00,27.6,15.9,30.06,NNE,23,2.0,2.0,61,0.00,,,0.00,Wunderground v.1.15,2014-01-18 17:45:00,
2014-01-18 12:50:00,27.6,15.1,30.06,SSW,205,2.0,3.0,59,0.00,,,0.00,Wunderground v.1.15,2014-01-18 17:50:00,
2014-01-18 12:55:00,27.9,16.6,30.06,East,85,2.0,3.0,62,0.00,,,0.00,Wunderground v.1.15,2014-01-18 17:55:00,
2014-01-18 13:05:00,28.0,15.5,30.06,WSW,249,2.0,3.0,59,0.00,,,0.00,Wunderground v.1.15,2014-01-18 18:05:00,
2014-01-18 13:10:00,28.2,15.3,30.06,South,172,2.0,2.0,58,0.00,,,0.00,Wunderground v.1.15,2014-01-18 18:10:00,
2014-01-18 13:15:00,28.1,15.2,30.06,West,280,2.0,4.0,58,0.00,,,0.00,Wunderground v.1.15,2014-01-18 18:15:00,
2014-01-18 13:20:00,28.1,15.6,30.07,SSW,197,2.0,2.0,59,0.00,,,0.00,Wunderground v.1.15,2014-01-18 18:20:00,
2014-01-18 13:30:00,28.9,16.0,30.06,SE,146,1.0,1.0,58,0.00,,,0.00,Wunderground v.1.15,2014-01-18 18:30:00,
2014-01-18 13:35:00,29.2,15.8,30.06,SSW,210,1.0,3.0,57,0.00,,,0.00,Wunderground v.1.15,2014-01-18 18:35:00,
2014-01-18 13:40:00,29.2,15.8,30.05,NE,35,2.0,3.0,57,0.00,,,0.00,Wunderground v.1.15,2014-01-18 18:40:00,
2014-01-18 13:45:00,29.3,16.3,30.06,WNW,285,2.0,4.0,58,0.00,,,0.00,Wunderground v.1.15,2014-01-18 18:45:00,
2014-01-18 13:50:00,29.3,15.9,30.05,WSW,243,2.0,4.0,57,0.00,,,0.00,Wunderground v.1.15,2014-01-18 18:50:00,
2014-01-18 13:55:00,29.0,15.7,30.05,SW,233,2.0,4.0,57,0.00,,,0.00,Wunderground v.1.15,2014-01-18 18:55:00,
2014-01-18 14:00:00,30.0,17.4,30.04,WSW,238,2.0,2.0,59,0.00,,,0.00,Wunderground v.1.15,2014-01-18 19:00:00,
2014-01-18 14:05:00,29.9,15.7,30.03,WSW,243,1.0,2.0,55,0.00,,,0.00,Wunderground v.1.15,2014-01-18 19:05:00,
2014-01-18 14:10:00,30.0,16.2,30.03,SW,217,2.0,3.0,56,0.00,,,0.00,Wunderground v.1.15,2014-01-18 19:10:00,
2014-01-18 14:15:00,29.7,15.5,30.03,SW,221,2.0,3.0,55,0.00,,,0.00,Wunderground v.1.15,2014-01-18 19:15:00,
2014-01-18 14:25:00,30.2,16.0,30.03,SW,228,2.0,2.0,55,0.00,,,0.00,Wunderground v.1.15,2014-01-18 19:25:00,
2014-01-18 14:30:00,30.3,16.0,30.03,East,81,2.0,3.0,55,0.00,,,0.00,Wunderground v.1.15,2014-01-18 19:30:00,
2014-01-18 14:35:00,30.4,16.1,30.03,SE,130,2.0,3.0,55,0.00,,,0.00,Wunderground v.1.15,2014-01-18 19:35:00,
2014-01-18 14:40:00,30.6,15.9,30.03,SW,236,1.0,1.0,54,0.00,,,0.00,Wunderground v.1.15,2014-01-18 19:40:00,
2014-01-18 14:45:00,30.6,15.9,30.03,ESE,121,1.0,2.0,54,0.00,,,0.00,Wunderground v.1.15,2014-01-18 19:45:00,
2014-01-18 14:55:00,31.2,16.9,30.02,SE,124,1.0,2.0,55,0.00,,,0.00,Wunderground v.1.15,2014-01-18 19:55:00,
2014-01-18 15:00:00,31.5,16.7,30.02,East,84,1.0,2.0,54,0.00,,,0.00,Wunderground v.1.15,2014-01-18 20:00:00,
2014-01-18 15:05:00,31.6,16.4,30.02,WNW,293,1.0,2.0,53,0.00,,,0.00,Wunderground v.1.15,2014-01-18 20:05:00,
2014-01-18 15:10:00,31.7,15.6,30.02,East,101,0.0,2.0,51,0.00,,,0.00,Wunderground v.1.15,2014-01-18 20:10:00,
2014-01-18 15:15:00,31.8,15.7,30.03,WSW,246,0.0,2.0,51,0.00,,,0.00,Wunderground v.1.15,2014-01-18 20:15:00,
2014-01-18 15:20:00,31.9,16.2,30.03,NW,315,0.0,2.0,52,0.00,,,0.00,Wunderground v.1.15,2014-01-18 20:20:00,
2014-01-18 15:30:00,31.5,15.4,30.03,ENE,73,1.0,3.0,51,0.00,,,0.00,Wunderground v.1.15,2014-01-18 20:30:00,
2014-01-18 15:35:00,31.5,15.9,30.03,WSW,255,1.0,3.0,52,0.00,,,0.00,Wunderground v.1.15,2014-01-18 20:35:00,
2014-01-18 15:40:00,31.5,15.4,30.04,NNE,19,1.0,2.0,51,0.00,,,0.00,Wunderground v.1.15,2014-01-18 20:40:00,
2014-01-18 15:45:00,31.5,15.9,30.04,North,349,1.0,2.0,52,0.00,,,0.00,Wunderground v.1.15,2014-01-18 20:45:00,
2014-01-18 15:50:00,31.8,15.7,30.04,North,7,1.0,1.0,51,0.00,,,0.00,Wunderground v.1.15,2014-01-18 20:50:00,
2014-01-18 15:55:00,31.7,15.6,30.04,East,101,1.0,2.0,51,0.00,,,0.00,Wunderground v.1.15,2014-01-18 20:55:00,
2014-01-18 16:00:00,31.8,15.7,30.04,North,8,0.0,2.0,51,0.00,,,0.00,Wunderground v.1.15,2014-01-18 21:00:00,
2014-01-18 16:05:00,31.9,15.3,30.04,North,4,0.0,2.0,50,0.00,,,0.00,Wunderground v.1.15,2014-01-18 21:05:00,
2014-01-18 16:10:00,31.9,15.8,30.04,WNW,297,0.0,2.0,51,0.00,,,0.00,Wunderground v.1.15,2014-01-18 21:10:00,
2014-01-18 16:15:00,32.0,15.4,30.04,North,360,0.0,2.0,50,0.00,,,0.00,Wunderground v.1.15,2014-01-18 21:15:00,
2014-01-18 16:20:00,32.0,15.4,30.04,North,360,0.0,2.0,50,0.00,,,0.00,Wunderground v.1.15,2014-01-18 21:20:00,
2014-01-18 16:25:00,32.0,15.4,30.04,North,360,0.0,2.0,50,0.00,,,0.00,Wunderground v.1.15,2014-01-18 21:25:00,
2014-01-18 16:30:00,32.0,14.5,30.03,North,8,0.0,2.0,48,0.00,,,0.00,Wunderground v.1.15,2014-01-18 21:30:00,
2014-01-18 16:35:00,32.0,15.4,30.03,North,8,0.0,2.0,50,0.00,,,0.00,Wunderground v.1.15,2014-01-18 21:35:00,
2014-01-18 16:40:00,31.7,15.2,30.03,North,7,0.0,2.0,50,0.00,,,0.00,Wunderground v.1.15,2014-01-18 21:40:00,
2014-01-18 16:45:00,31.5,14.5,30.04,North,8,0.0,2.0,49,0.00,,,0.00,Wunderground v.1.15,2014-01-18 21:45:00,
2014-01-18 16:50:00,31.4,14.4,30.03,ESE,104,0.0,2.0,49,0.00,,,0.00,Wunderground v.1.15,2014-01-18 21:50:00,
2014-01-18 17:00:00,31.4,13.9,30.03,ESE,107,0.0,2.0,48,0.00,,,0.00,Wunderground v.1.15,2014-01-18 22:00:00,
2014-01-18 17:05:00,31.4,13.9,30.03,ESE,104,0.0,2.0,48,0.00,,,0.00,Wunderground v.1.15,2014-01-18 22:05:00,
2014-01-18 17:10:00,31.4,13.9,30.03,SSE,153,0.0,2.0,48,0.00,,,0.00,Wunderground v.1.15,2014-01-18 22:10:00,
2014-01-18 17:15:00,31.2,14.2,30.03,SE,132,0.0,2.0,49,0.00,,,0.00,Wunderground v.1.15,2014-01-18 22:15:00,
2014-01-18 17:20:00,31.2,14.2,30.03,ESE,118,0.0,2.0,49,0.00,,,0.00,Wunderground v.1.15,2014-01-18 22:20:00,
2014-01-18 17:25:00,31.2,14.2,30.03,ESE,114,0.0,2.0,49,0.00,,,0.00,Wunderground v.1.15,2014-01-18 22:25:00,
2014-01-18 17:35:00,30.8,13.9,30.03,SSE,165,0.0,2.0,49,0.00,,,0.00,Wunderground v.1.15,2014-01-18 22:35:00,
2014-01-18 17:40:00,30.6,14.1,30.03,SE,136,0.0,2.0,50,0.00,,,0.00,Wunderground v.1.15,2014-01-18 22:40:00,
2014-01-18 17:45:00,30.5,14.0,30.03,SE,129,0.0,2.0,50,0.00,,,0.00,Wunderground v.1.15,2014-01-18 22:45:00,
2014-01-18 17:50:00,30.2,14.2,30.03,SE,130,0.0,2.0,51,0.00,,,0.00,Wunderground v.1.15,2014-01-18 22:50:00,
2014-01-18 17:55:00,30.1,14.6,30.03,SE,127,0.0,2.0,52,0.00,,,0.00,Wunderground v.1.15,2014-01-18 22:55:00,
2014-01-18 18:05:00,29.9,14.8,30.03,ESE,113,0.0,2.0,53,0.00,,,0.00,Wunderground v.1.15,2014-01-18 23:05:00,
2014-01-18 18:10:00,30.0,14.5,30.03,SE,134,0.0,2.0,52,0.00,,,0.00,Wunderground v.1.15,2014-01-18 23:10:00,
2014-01-18 18:15:00,29.6,15.0,30.02,ESE,121,0.0,2.0,54,0.00,,,0.00,Wunderground v.1.15,2014-01-18 23:15:00,
2014-01-18 18:25:00,29.4,13.0,30.03,SSW,203,1.0,6.0,50,0.00,,,0.00,Wunderground v.1.15,2014-01-18 23:25:00,
2014-01-18 18:30:00,30.3,12.9,30.03,ESE,114,2.0,2.0,48,0.00,,,0.00,Wunderground v.1.15,2014-01-18 23:30:00,
2014-01-18 18:35:00,30.4,13.0,30.03,ENE,76,2.0,4.0,48,0.00,,,0.00,Wunderground v.1.15,2014-01-18 23:35:00,
2014-01-18 18:40:00,30.7,12.8,30.03,ESE,105,2.0,2.0,47,0.00,,,0.00,Wunderground v.1.15,2014-01-18 23:40:00,
2014-01-18 18:45:00,30.7,12.8,30.03,South,180,2.0,2.0,47,0.00,,,0.00,Wunderground v.1.15,2014-01-18 23:45:00,
2014-01-18 18:50:00,30.4,13.5,30.03,SSW,204,2.0,2.0,49,0.00,,,0.00,Wunderground v.1.15,2014-01-18 23:50:00,
2014-01-18 18:55:00,30.1,12.7,30.04,SSE,151,1.0,2.0,48,0.00,,,0.00,Wunderground v.1.15,2014-01-18 23:55:00,
2014-01-18 19:00:00,30.2,12.8,30.04,East,101,1.0,1.0,48,0.00,,,0.00,Wunderground v.1.15,2014-01-19 00:00:00,
2014-01-18 19:05:00,30.1,11.8,30.03,ESE,116,1.0,5.0,46,0.00,,,0.00,Wunderground v.1.15,2014-01-19 00:05:00,
2014-01-18 19:10:00,30.5,10.6,30.03,SSE,155,2.0,2.0,43,0.00,,,0.00,Wunderground v.1.15,2014-01-19 00:10:00,
2014-01-18 19:15:00,30.2,10.9,30.03,SSW,201,2.0,3.0,44,0.00,,,0.00,Wunderground v.1.15,2014-01-19 00:15:00,
2014-01-18 19:20:00,30.2,10.9,30.03,SE,146,2.0,2.0,44,0.00,,,0.00,Wunderground v.1.15,2014-01-19 00:20:00,
2014-01-18 19:25:00,30.0,10.2,30.02,SE,136,2.0,2.0,43,0.00,,,0.00,Wunderground v.1.15,2014-01-19 00:25:00,
2014-01-18 19:30:00,30.0,10.2,30.02,East,87,2.0,4.0,43,0.00,,,0.00,Wunderground v.1.15,2014-01-19 00:30:00,
2014-01-18 19:40:00,29.4,10.6,30.02,SE,128,2.0,2.0,45,0.00,,,0.00,Wunderground v.1.15,2014-01-19 00:40:00,
2014-01-18 19:45:00,29.4,10.6,30.02,SSE,165,2.0,2.0,45,0.00,,,0.00,Wunderground v.1.15,2014-01-19 00:45:00,
2014-01-18 19:50:00,29.2,11.0,30.02,SE,143,2.0,5.0,46,0.00,,,0.00,Wunderground v.1.15,2014-01-19 00:50:00,
2014-01-18 19:55:00,29.3,11.1,30.02,West,262,3.0,5.0,46,0.00,,,0.00,Wunderground v.1.15,2014-01-19 00:55:00,
2014-01-18 20:00:00,29.2,11.4,30.01,East,98,3.0,4.0,47,0.00,,,0.00,Wunderground v.1.15,2014-01-19 01:00:00,
2014-01-18 20:05:00,29.2,11.0,30.02,SSE,167,3.0,6.0,46,0.00,,,0.00,Wunderground v.1.15,2014-01-19 01:05:00,
2014-01-18 20:15:00,29.1,11.4,30.02,WSW,242,4.0,4.0,47,0.00,,,0.00,Wunderground v.1.15,2014-01-19 01:15:00,
2014-01-18 20:20:00,29.1,11.4,30.02,SE,127,4.0,4.0,47,0.00,,,0.00,Wunderground v.1.15,2014-01-19 01:20:00,
2014-01-18 20:25:00,28.9,11.6,30.02,East,97,3.0,4.0,48,0.00,,,0.00,Wunderground v.1.15,2014-01-19 01:25:00,
2014-01-18 20:30:00,29.0,11.7,30.02,South,172,4.0,4.0,48,0.00,,,0.00,Wunderground v.1.15,2014-01-19 01:30:00,
2014-01-18 20:35:00,29.0,11.7,30.01,East,89,3.0,4.0,48,0.00,,,0.00,Wunderground v.1.15,2014-01-19 01:35:00,
2014-01-18 20:45:00,28.8,11.6,30.00,East,89,5.0,6.0,48,0.00,,,0.00,Wunderground v.1.15,2014-01-19 01:45:00,
2014-01-18 20:50:00,28.8,11.6,30.00,SE,130,5.0,5.0,48,0.00,,,0.00,Wunderground v.1.15,2014-01-19 01:50:00,
2014-01-18 20:55:00,28.7,11.5,30.01,SE,132,4.0,5.0,48,0.00,,,0.00,Wunderground v.1.15,2014-01-19 01:55:00,
2014-01-18 21:00:00,28.7,11.5,30.03,NNW,333,2.0,2.0,48,0.00,,,0.00,Wunderground v.1.15,2014-01-19 02:00:00,
2014-01-18 21:05:00,28.8,11.6,30.05,SSE,149,1.0,2.0,48,0.00,,,0.00,Wunderground v.1.15,2014-01-19 02:05:00,
2014-01-18 21:10:00,28.9,11.6,30.05,East,90,1.0,2.0,48,0.00,,,0.00,Wunderground v.1.15,2014-01-19 02:10:00,
2014-01-18 21:15:00,28.8,12.0,30.05,SW,214,1.0,2.0,49,0.00,,,0.00,Wunderground v.1.15,2014-01-19 02:15:00,
2014-01-18 21:20:00,28.5,11.7,30.04,East,94,1.0,1.0,49,0.00,,,0.00,Wunderground v.1.15,2014-01-19 02:20:00,
2014-01-18 21:25:00,28.3,12.0,30.04,East,88,1.0,2.0,50,0.00,,,0.00,Wunderground v.1.15,2014-01-19 02:25:00,
2014-01-18 21:30:00,28.1,11.8,30.03,East,86,1.0,2.0,50,0.00,,,0.00,Wunderground v.1.15,2014-01-19 02:30:00,
2014-01-18 21:35:00,28.0,11.7,30.03,ESE,104,2.0,3.0,50,0.00,,,0.00,Wunderground v.1.15,2014-01-19 02:35:00,
2014-01-18 21:40:00,28.1,11.8,30.03,East,90,3.0,3.0,50,0.00,,,0.00,Wunderground v.1.15,2014-01-19 02:40:00,
2014-01-18 21:45:00,28.1,11.8,30.04,ESE,115,3.0,3.0,50,0.00,,,0.00,Wunderground v.1.15,2014-01-19 02:45:00,
2014-01-18 21:55:00,28.1,12.3,30.04,East,84,1.0,2.0,51,0.00,,,0.00,Wunderground v.1.15,2014-01-19 02:55:00,
2014-01-18 22:00:00,28.1,12.3,30.04,East,86,1.0,2.0,51,0.00,,,0.00,Wunderground v.1.15,2014-01-19 03:00:00,
2014-01-18 22:05:00,28.1,11.8,30.04,East,89,1.0,2.0,50,0.00,,,0.00,Wunderground v.1.15,2014-01-19 03:05:00,
2014-01-18 22:10:00,28.2,13.2,30.04,SW,224,1.0,1.0,53,0.00,,,0.00,Wunderground v.1.15,2014-01-19 03:10:00,
2014-01-18 22:15:00,28.0,12.2,30.04,ENE,75,1.0,2.0,51,0.00,,,0.00,Wunderground v.1.15,2014-01-19 03:15:00,
2014-01-18 22:20:00,28.1,11.8,30.04,ENE,70,1.0,1.0,50,0.00,,,0.00,Wunderground v.1.15,2014-01-19 03:20:00,
2014-01-18 22:30:00,28.2,11.9,30.04,ENE,67,0.0,3.0,50,0.00,,,0.00,Wunderground v.1.15,2014-01-19 03:30:00,
2014-01-18 22:35:00,28.3,12.5,30.04,WNW,283,1.0,3.0,51,0.00,,,0.00,Wunderground v.1.15,2014-01-19 03:35:00,
2014-01-18 22:45:00,28.5,12.2,30.05,ESE,119,1.0,2.0,50,0.00,,,0.00,Wunderground v.1.15,2014-01-19 03:45:00,
2014-01-18 22:50:00,28.6,12.3,30.04,ESE,105,1.0,2.0,50,0.00,,,0.00,Wunderground v.1.15,2014-01-19 03:50:00,
2014-01-18 23:00:00,28.6,12.3,30.04,SSE,155,1.0,2.0,50,0.00,,,0.00,Wunderground v.1.15,2014-01-19 04:00:00,
2014-01-18 23:10:00,28.9,12.6,30.04,ESE,120,1.0,1.0,50,0.00,,,0.00,Wunderground v.1.15,2014-01-19 04:10:00,
2014-01-18 23:15:00,28.7,12.4,30.03,West,276,1.0,2.0,50,0.00,,,0.00,Wunderground v.1.15,2014-01-19 04:15:00,
2014-01-18 23:20:00,28.8,12.0,30.03,East,94,1.0,1.0,49,0.00,,,0.00,Wunderground v.1.15,2014-01-19 04:20:00,
2014-01-18 23:25:00,28.9,12.1,30.03,East,83,1.0,2.0,49,0.00,,,0.00,Wunderground v.1.15,2014-01-19 04:25:00,
2014-01-18 23:30:00,28.9,11.6,30.03,SSE,158,2.0,3.0,48,0.00,,,0.00,Wunderground v.1.15,2014-01-19 04:30:00,
2014-01-18 23:35:00,29.0,11.3,30.03,WSW,239,1.0,3.0,47,0.00,,,0.00,Wunderground v.1.15,2014-01-19 04:35:00,
2014-01-18 23:40:00,29.2,11.0,30.02,ESE,110,2.0,3.0,46,0.00,,,0.00,Wunderground v.1.15,2014-01-19 04:40:00,
2014-01-18 23:45:00,29.2,11.0,30.02,South,169,1.0,3.0,46,0.00,,,0.00,Wunderground v.1.15,2014-01-19 04:45:00,
2014-01-18 23:50:00,29.3,11.1,30.02,SE,128,1.0,3.0,46,0.00,,,0.00,Wunderground v.1.15,2014-01-19 04:50:00,
2014-01-18 23:55:00,29.4,10.6,30.02,ESE,115,2.0,3.0,45,0.00,,,0.00,Wunderground v.1.15,2014-01-19 04:55:00,